マガダン の空港の天気 - METARとTAF

マガダン・ソコル空港 ( UHMM / GDX ) - ロシア マガダン
飛行場実況気象(Metar)
観測時間04/26 03:00 +11 (04/25 16:00 UTC)
風向・風速静穏 0m/s
視程10km以上
天気現象
なし
気温-5℃
湿度93%
気圧1011hPa
METARUHMM 251600Z 00000MPS 9999 NSC M05/M06 Q1011 RMK QFE743
過去の天気等 Google飛行場航空写真 Wunderground天気予報

過去48時間のMETAR

飛行場予報(TAF)
発表時間: 4/26 00:50 +11 (4/25 13:50 UTC)
予報対象時間: 26日2時 +11 ~ 27日8時 +11
風向・風速不定 1m/s
視程10km以上
なし
26日4時 +11 ~ 26日5時 +11 に徐々に
視程1,200m
天気現象もや
全天の4割程度の雲 雲底高度 150m
26日5時 +11 ~ 26日10時 +11 に一時的に
視程400m
天気現象
全天を覆う雲 鉛直視程 90m
26日11時 +11 から
風向・風速南西 3m/s 瞬間風速 8m/s
視程10km以上
全天の4割程度の雲 雲底高度 340m
全天の4割程度の雲 雲底高度 2,130m
TAF UHMM 251350Z 2515/2621 VRB01MPS 9999 NSC
BECMG 2517/2518 1200 BR SCT005
TEMPO 2518/2523 0400 FG VV003
FM260000 23003G08MPS 9999 SCT011 SCT070